createdAt,value
2022-10-25T00:01:27.143Z,50.58
2022-10-25T00:03:56.062Z,50.59
2022-10-25T00:06:25.037Z,50.62
2022-10-25T00:08:53.477Z,50.68
2022-10-25T00:11:23.703Z,51.02
2022-10-25T00:13:52.911Z,50.95
2022-10-25T00:16:24.617Z,50.94
2022-10-25T00:18:53.621Z,50.96
2022-10-25T00:21:21.845Z,50.83
2022-10-25T00:23:51.437Z,51.08
2022-10-25T00:26:20.387Z,50.77
2022-10-25T00:28:48.755Z,50.72
2022-10-25T00:31:18.847Z,50.40
2022-10-25T00:33:48.679Z,50.62
2022-10-25T00:36:19.581Z,50.60
2022-10-25T00:38:48.558Z,50.35
2022-10-25T00:41:17.661Z,50.61
2022-10-25T00:43:48.577Z,50.39
2022-10-25T00:46:24.410Z,50.17
2022-10-25T00:48:58.825Z,50.20
2022-10-25T00:51:34.232Z,49.99
2022-10-25T00:54:02.974Z,49.98
2022-10-25T00:56:35.567Z,49.97
2022-10-25T00:59:08.268Z,49.94
2022-10-25T01:01:37.824Z,49.68
2022-10-25T01:04:10.683Z,49.99
2022-10-25T01:06:41.699Z,49.67
2022-10-25T01:09:12.325Z,49.77
2022-10-25T01:11:40.727Z,49.63
2022-10-25T01:14:13.459Z,49.82
2022-10-25T01:16:51.228Z,49.79
2022-10-25T01:19:38.328Z,49.94
2022-10-25T01:22:11.020Z,49.79
2022-10-25T01:25:04.568Z,49.79
2022-10-25T01:30:54.006Z,49.92
2022-10-25T01:33:28.894Z,50.05
2022-10-25T01:36:07.270Z,50.45
2022-10-25T01:38:42.947Z,50.35
2022-10-25T01:41:21.015Z,50.84
2022-10-25T01:44:00.281Z,50.75
2022-10-25T01:46:37.617Z,50.50
2022-10-25T01:49:07.923Z,50.71
2022-10-25T01:51:37.579Z,50.77
2022-10-25T01:54:19.330Z,50.81
2022-10-25T01:56:59.500Z,50.75
2022-10-25T01:59:45.515Z,50.51
2022-10-25T02:02:23.898Z,50.63
2022-10-25T02:05:02.492Z,50.29
2022-10-25T02:07:37.829Z,50.05
2022-10-25T02:10:10.855Z,50.26
2022-10-25T02:12:49.733Z,50.11
2022-10-25T02:15:25.570Z,50.05
2022-10-25T02:18:00.331Z,49.85
2022-10-25T02:20:32.949Z,49.81
2022-10-25T02:23:04.422Z,49.68
2022-10-25T02:25:35.161Z,49.62
2022-10-25T02:28:07.962Z,49.56
2022-10-25T02:30:39.249Z,49.59
2022-10-25T02:33:09.140Z,49.50
2022-10-25T02:35:38.100Z,49.68
2022-10-25T02:38:06.364Z,49.97
2022-10-25T02:40:36.460Z,49.92
2022-10-25T02:43:04.636Z,50.02
2022-10-25T02:45:33.044Z,50.02
2022-10-25T02:48:01.510Z,50.06
2022-10-25T02:50:31.276Z,49.97
2022-10-25T02:52:59.713Z,49.92
2022-10-25T02:55:28.093Z,50.01
2022-10-25T02:57:56.482Z,50.02
2022-10-25T03:00:24.988Z,50.47
2022-10-25T03:02:53.511Z,50.30
2022-10-25T03:05:22.173Z,50.40
2022-10-25T03:07:52.083Z,50.30
2022-10-25T03:10:20.512Z,50.40
2022-10-25T03:12:49.231Z,50.64
2022-10-25T03:15:17.826Z,50.29
2022-10-25T03:17:46.654Z,50.57
2022-10-25T03:20:15.138Z,50.82
2022-10-25T03:22:43.553Z,50.67
2022-10-25T03:25:13.414Z,50.53
2022-10-25T03:27:41.822Z,50.19
2022-10-25T03:30:10.877Z,50.08
2022-10-25T03:32:39.375Z,50.11
2022-10-25T03:35:09.061Z,50.08
2022-10-25T03:37:37.540Z,50.02
2022-10-25T03:40:06.888Z,50.00
2022-10-25T03:42:36.772Z,49.71
2022-10-25T03:45:05.800Z,49.62
2022-10-25T03:47:33.969Z,49.72
2022-10-25T03:50:02.427Z,49.86
2022-10-25T03:52:31.271Z,49.98
2022-10-25T03:54:59.759Z,49.77
2022-10-25T03:57:28.295Z,49.74
2022-10-25T03:59:59.828Z,49.95
2022-10-25T04:02:28.535Z,49.74
2022-10-25T04:04:56.899Z,49.54
2022-10-25T04:07:25.331Z,49.47
2022-10-25T04:09:53.803Z,49.46
2022-10-25T04:12:22.189Z,49.33
2022-10-25T04:14:50.563Z,49.19
2022-10-25T04:17:20.399Z,48.90
2022-10-25T04:19:48.858Z,49.02
2022-10-25T04:22:17.238Z,49.09
2022-10-25T04:24:45.671Z,48.90
2022-10-25T04:27:14.314Z,48.99
2022-10-25T04:29:42.648Z,48.93
2022-10-25T04:32:11.852Z,48.97
2022-10-25T04:34:41.733Z,48.65
2022-10-25T04:37:10.127Z,48.72
2022-10-25T04:39:38.619Z,48.64
2022-10-25T04:42:07.118Z,48.84
2022-10-25T04:44:35.561Z,48.66
2022-10-25T04:47:03.905Z,48.56
2022-10-25T04:49:32.398Z,48.61
2022-10-25T04:52:02.216Z,48.53
2022-10-25T04:54:30.602Z,48.30
2022-10-25T04:56:59.584Z,48.51
2022-10-25T04:59:27.726Z,48.48
2022-10-25T05:01:56.146Z,48.25
2022-10-25T05:04:25.037Z,48.32
2022-10-25T05:06:53.157Z,48.45
2022-10-25T05:09:23.010Z,48.90
2022-10-25T05:11:51.461Z,49.05
2022-10-25T05:14:19.953Z,49.70
2022-10-25T05:16:48.427Z,50.10
2022-10-25T05:19:16.845Z,50.00
2022-10-25T05:21:45.292Z,50.21
2022-10-25T05:24:13.734Z,50.40
2022-10-25T05:26:43.661Z,50.12
2022-10-25T05:29:13.624Z,49.93
2022-10-25T05:31:43.060Z,49.99
2022-10-25T05:34:12.142Z,49.87
2022-10-25T05:36:40.679Z,49.46
2022-10-25T05:39:09.091Z,49.45
2022-10-25T05:41:37.623Z,49.25
2022-10-25T05:44:07.608Z,49.39
2022-10-25T05:46:36.199Z,49.26
2022-10-25T05:49:05.139Z,48.80
2022-10-25T05:51:35.058Z,49.03
2022-10-25T05:54:07.331Z,49.19
2022-10-25T05:56:36.835Z,49.13
2022-10-25T05:59:09.046Z,49.03
2022-10-25T06:01:38.795Z,49.45
2022-10-25T06:04:09.449Z,49.69
2022-10-25T06:06:39.136Z,49.46
2022-10-25T06:09:08.217Z,49.88
2022-10-25T06:11:37.336Z,49.61
2022-10-25T06:14:05.804Z,49.76
2022-10-25T06:16:35.747Z,49.72
2022-10-25T06:19:04.374Z,49.83
2022-10-25T06:21:32.790Z,49.90
2022-10-25T06:24:01.697Z,49.99
2022-10-25T06:26:31.489Z,50.15
2022-10-25T06:29:01.968Z,50.48
2022-10-25T06:31:31.515Z,50.53
2022-10-25T06:34:01.947Z,50.77
2022-10-25T06:36:31.856Z,50.85
2022-10-25T06:39:06.746Z,50.90
2022-10-25T06:41:37.808Z,50.87
2022-10-25T06:44:07.829Z,51.10
2022-10-25T06:47:04.412Z,51.32
2022-10-25T06:49:28.260Z,51.60
2022-10-25T06:51:56.682Z,51.97
2022-10-25T06:54:26.854Z,52.37
2022-10-25T06:56:55.403Z,52.54
2022-10-25T06:59:23.995Z,52.17
2022-10-25T07:01:52.678Z,52.06
2022-10-25T07:04:21.188Z,52.05
2022-10-25T07:06:54.333Z,51.96
2022-10-25T07:09:23.909Z,52.11
2022-10-25T07:11:52.629Z,51.98
2022-10-25T07:14:21.068Z,51.77
2022-10-25T07:16:49.413Z,51.68
2022-10-25T07:19:17.938Z,51.54
2022-10-25T07:21:46.388Z,51.97
2022-10-25T07:24:16.350Z,51.80
2022-10-25T07:26:44.962Z,51.78
2022-10-25T07:29:13.560Z,51.90
2022-10-25T07:31:44.367Z,51.79
2022-10-25T07:34:15.019Z,52.01
2022-10-25T07:36:43.800Z,52.03
2022-10-25T07:39:12.196Z,52.35
2022-10-25T07:41:41.972Z,52.40
2022-10-25T07:44:16.085Z,52.62
2022-10-25T07:46:46.036Z,52.44
2022-10-25T07:49:14.563Z,52.32
2022-10-25T07:51:43.147Z,52.76
2022-10-25T07:54:11.626Z,52.65
2022-10-25T07:56:41.437Z,52.64
2022-10-25T07:59:09.841Z,52.42
2022-10-25T08:01:38.263Z,52.51
2022-10-25T08:04:06.784Z,52.51
2022-10-25T08:06:36.315Z,52.59
2022-10-25T08:09:14.338Z,52.52
2022-10-25T08:11:44.985Z,52.59
2022-10-25T08:14:13.527Z,52.49
2022-10-25T08:16:41.933Z,52.83
2022-10-25T08:19:10.691Z,53.00
2022-10-25T08:21:39.122Z,53.00
2022-10-25T08:24:08.388Z,53.06
2022-10-25T08:26:37.267Z,52.78
2022-10-25T08:29:07.140Z,52.68
2022-10-25T08:31:36.434Z,52.80
2022-10-25T08:34:05.055Z,53.05
2022-10-25T08:36:33.655Z,52.83
2022-10-25T08:39:28.915Z,52.75
2022-10-25T08:42:01.813Z,52.80
2022-10-25T08:44:47.005Z,52.63
2022-10-25T08:47:22.125Z,52.63
2022-10-25T08:49:57.055Z,52.74
2022-10-25T08:52:31.359Z,52.57
2022-10-25T08:55:04.873Z,52.54
2022-10-25T08:57:39.476Z,52.40
2022-10-25T09:00:17.499Z,52.30
2022-10-25T09:02:52.241Z,52.54
2022-10-25T09:05:35.898Z,52.35
2022-10-25T09:08:26.672Z,52.46
2022-10-25T09:11:04.182Z,52.38
2022-10-25T09:13:42.456Z,52.31
2022-10-25T09:16:17.671Z,52.41
2022-10-25T09:18:50.352Z,52.51
2022-10-25T09:21:23.079Z,52.27
2022-10-25T09:24:00.243Z,52.39
2022-10-25T09:26:42.205Z,52.20
2022-10-25T09:29:18.444Z,52.21
2022-10-25T09:31:53.185Z,52.43
2022-10-25T09:34:24.537Z,52.33
2022-10-25T09:36:58.014Z,52.06
2022-10-25T09:39:35.356Z,52.27
2022-10-25T09:42:05.228Z,52.25
2022-10-25T09:44:41.561Z,52.19
2022-10-25T09:47:19.895Z,52.34
2022-10-25T09:49:58.990Z,52.46
2022-10-25T09:52:36.149Z,52.31
2022-10-25T09:55:17.599Z,52.43
2022-10-25T09:57:46.665Z,52.17
2022-10-25T10:00:16.418Z,51.96
2022-10-25T10:02:46.332Z,51.77
2022-10-25T10:05:16.802Z,51.43
2022-10-25T10:07:47.248Z,51.22
2022-10-25T10:10:18.951Z,51.38
2022-10-25T10:12:53.541Z,50.83
2022-10-25T10:15:26.311Z,50.91
2022-10-25T10:18:26.821Z,50.76
2022-10-25T10:21:04.802Z,50.84
2022-10-25T10:23:36.921Z,50.88
2022-10-25T10:26:12.776Z,50.88
2022-10-25T10:28:46.976Z,50.94
2022-10-25T10:31:15.990Z,51.02
2022-10-25T10:33:50.208Z,51.29
2022-10-25T10:36:27.628Z,51.52
2022-10-25T10:39:13.835Z,51.45
2022-10-25T10:42:01.064Z,51.61
2022-10-25T10:44:29.578Z,51.61
2022-10-25T10:46:58.157Z,51.37
2022-10-25T10:49:37.335Z,51.34
2022-10-25T10:52:06.816Z,51.32
2022-10-25T10:54:36.414Z,51.14
2022-10-25T10:57:07.522Z,50.87
2022-10-25T10:59:41.368Z,50.60
2022-10-25T11:02:27.650Z,50.42
2022-10-25T11:04:58.133Z,50.44
2022-10-25T11:07:33.571Z,50.50
2022-10-25T11:10:25.421Z,50.17
2022-10-25T11:13:12.411Z,49.92
2022-10-25T11:16:21.994Z,50.16
2022-10-25T11:19:03.442Z,50.20
2022-10-25T11:21:51.058Z,50.09
2022-10-25T11:24:29.599Z,50.17
2022-10-25T11:27:10.076Z,49.88
2022-10-25T11:29:55.452Z,50.10
2022-10-25T11:32:45.405Z,49.88
2022-10-25T11:35:34.649Z,49.91
2022-10-25T11:38:08.635Z,50.11
2022-10-25T11:40:41.346Z,50.18
2022-10-25T11:43:31.191Z,50.30
2022-10-25T11:46:06.002Z,50.70
2022-10-25T11:48:46.756Z,50.58
2022-10-25T11:51:29.347Z,50.66
2022-10-25T11:54:09.123Z,51.07
2022-10-25T11:56:45.502Z,51.09
2022-10-25T11:59:20.799Z,51.34
2022-10-25T12:02:12.044Z,51.17
2022-10-25T12:04:54.317Z,51.55
2022-10-25T12:07:30.270Z,51.67
2022-10-25T12:10:09.570Z,51.67
2022-10-25T12:12:44.643Z,51.38
2022-10-25T12:15:18.351Z,51.39
2022-10-25T12:17:47.615Z,51.46
2022-10-25T12:20:24.121Z,51.50
2022-10-25T12:22:56.866Z,51.72
2022-10-25T12:25:30.708Z,51.89
2022-10-25T12:28:06.958Z,52.09
2022-10-25T12:30:36.719Z,51.92
2022-10-25T12:33:14.489Z,51.81
2022-10-25T12:35:49.679Z,51.69
2022-10-25T12:38:22.529Z,51.58
2022-10-25T12:40:55.913Z,51.26
2022-10-25T12:43:33.236Z,51.23
2022-10-25T12:46:23.693Z,51.25
2022-10-25T12:49:12.060Z,51.22
2022-10-25T12:51:53.544Z,51.27
2022-10-25T12:54:38.264Z,51.18
2022-10-25T12:57:17.886Z,51.50
2022-10-25T13:00:00.274Z,51.54
2022-10-25T13:03:04.320Z,51.20
2022-10-25T13:05:59.386Z,51.48
2022-10-25T13:08:29.759Z,51.21
2022-10-25T13:11:00.694Z,51.14
2022-10-25T13:13:33.860Z,50.91
2022-10-25T13:16:04.659Z,51.10
2022-10-25T13:18:45.488Z,50.71
2022-10-25T13:21:15.619Z,50.66
2022-10-25T13:24:02.903Z,50.49
2022-10-25T13:27:15.137Z,50.29
2022-10-25T13:30:08.701Z,50.36
2022-10-25T13:32:38.860Z,50.27
2022-10-25T13:35:46.976Z,50.17
2022-10-25T13:38:22.463Z,50.37
2022-10-25T13:41:06.624Z,49.93
2022-10-25T13:43:36.425Z,50.14
2022-10-25T13:46:06.562Z,49.89
2022-10-25T13:48:36.829Z,49.94
2022-10-25T13:51:10.807Z,49.94
2022-10-25T13:53:41.951Z,49.68
2022-10-25T13:56:14.505Z,49.96
2022-10-25T13:58:48.694Z,49.89
2022-10-25T14:01:53.889Z,49.93
2022-10-25T14:04:35.596Z,50.04
2022-10-25T14:07:41.569Z,50.22
2022-10-25T14:10:29.940Z,50.19
2022-10-25T14:13:15.824Z,50.22
2022-10-25T14:15:51.390Z,50.21
2022-10-25T14:18:23.707Z,50.33
2022-10-25T14:20:56.665Z,50.49
2022-10-25T14:23:30.349Z,50.40
2022-10-25T14:26:00.996Z,50.56
2022-10-25T14:28:31.001Z,50.23
2022-10-25T14:31:01.235Z,50.30
2022-10-25T14:33:32.467Z,50.27
2022-10-25T14:36:11.807Z,49.96
2022-10-25T14:38:52.081Z,50.23
2022-10-25T14:41:25.849Z,50.40
2022-10-25T14:43:55.134Z,50.03
2022-10-25T14:46:25.492Z,50.18
2022-10-25T14:48:56.227Z,50.03
2022-10-25T14:51:29.711Z,50.01
2022-10-25T14:54:02.017Z,49.95
2022-10-25T14:56:33.757Z,50.06
2022-10-25T14:59:03.846Z,49.93
2022-10-25T15:01:32.380Z,50.16
2022-10-25T15:04:02.308Z,49.68
2022-10-25T15:06:33.887Z,50.03
2022-10-25T15:09:40.572Z,49.95
2022-10-25T15:12:05.673Z,49.94
2022-10-25T15:14:35.367Z,50.01
2022-10-25T15:17:05.225Z,50.07
2022-10-25T15:19:34.585Z,49.98
2022-10-25T15:22:16.780Z,50.11
2022-10-25T15:24:46.496Z,50.21
2022-10-25T15:27:28.242Z,50.03
2022-10-25T15:29:56.722Z,50.41
2022-10-25T15:32:27.806Z,50.32
2022-10-25T15:34:58.437Z,50.34
2022-10-25T15:37:29.606Z,50.45
2022-10-25T15:39:58.450Z,50.81
2022-10-25T15:42:27.882Z,50.76
2022-10-25T15:44:56.657Z,51.18
2022-10-25T15:47:30.809Z,51.14
2022-10-25T15:50:00.259Z,51.31
2022-10-25T15:52:30.063Z,51.48
2022-10-25T15:54:58.527Z,51.70
2022-10-25T15:57:27.744Z,51.84
2022-10-25T15:59:56.201Z,51.92
2022-10-25T16:02:28.621Z,52.11
2022-10-25T16:04:57.266Z,52.06
2022-10-25T16:07:25.765Z,51.78
2022-10-25T16:09:55.590Z,51.74
2022-10-25T16:12:32.638Z,51.58
2022-10-25T16:15:01.207Z,51.57
2022-10-25T16:17:30.915Z,51.45
2022-10-25T16:19:59.375Z,51.30
2022-10-25T16:22:27.840Z,51.25
2022-10-25T16:24:57.647Z,51.17
2022-10-25T16:27:26.070Z,51.00
2022-10-25T16:29:54.499Z,51.02
2022-10-25T16:32:22.957Z,51.07
2022-10-25T16:34:51.340Z,50.85
2022-10-25T16:37:19.842Z,50.77
2022-10-25T16:39:48.259Z,50.97
2022-10-25T16:42:29.911Z,50.86
2022-10-25T16:44:59.392Z,50.85
2022-10-25T16:47:27.984Z,50.83
2022-10-25T16:49:56.515Z,50.76
2022-10-25T16:52:24.871Z,50.45
2022-10-25T16:54:53.395Z,50.78
2022-10-25T16:57:21.849Z,51.01
2022-10-25T16:59:53.979Z,51.03
2022-10-25T17:02:26.139Z,51.03
2022-10-25T17:04:54.803Z,50.97
2022-10-25T17:07:24.471Z,51.22
2022-10-25T17:09:53.505Z,51.31
2022-10-25T17:12:22.249Z,51.17
2022-10-25T17:14:52.510Z,51.11
2022-10-25T17:19:55.267Z,51.00
2022-10-25T17:22:25.453Z,50.95
2022-10-25T17:24:54.046Z,50.88
2022-10-25T17:27:22.636Z,50.65
2022-10-25T17:29:52.511Z,50.63
2022-10-25T17:32:21.073Z,50.62
2022-10-25T17:34:49.649Z,50.67
2022-10-25T17:37:18.146Z,50.92
2022-10-25T17:39:46.910Z,51.00
2022-10-25T17:42:15.913Z,51.11
2022-10-25T17:44:45.225Z,51.38
2022-10-25T17:47:15.167Z,51.44
2022-10-25T17:49:43.931Z,51.35
2022-10-25T17:52:12.800Z,51.38
2022-10-25T17:54:41.058Z,52.22
2022-10-25T17:57:09.459Z,52.46
2022-10-25T17:59:38.224Z,52.62
2022-10-25T18:02:06.817Z,52.53
2022-10-25T18:04:53.413Z,52.33
2022-10-25T18:07:25.697Z,52.29
2022-10-25T18:09:54.453Z,52.22
2022-10-25T18:12:23.137Z,52.22
2022-10-25T18:14:55.768Z,52.44
2022-10-25T18:17:24.476Z,52.31
2022-10-25T18:19:54.657Z,52.42
2022-10-25T18:22:23.176Z,52.38
2022-10-25T18:24:51.994Z,52.35
2022-10-25T18:27:22.237Z,52.49
2022-10-25T18:29:50.592Z,52.55
2022-10-25T18:32:19.598Z,52.53
2022-10-25T18:34:48.175Z,52.67
2022-10-25T18:37:18.142Z,52.68
2022-10-25T18:39:47.129Z,52.53
2022-10-25T18:42:15.640Z,52.86
2022-10-25T18:44:44.219Z,52.65
2022-10-25T18:47:12.719Z,52.44
2022-10-25T18:49:41.282Z,52.23
2022-10-25T18:52:09.796Z,52.13
2022-10-25T18:54:39.965Z,52.07
2022-10-25T18:57:08.448Z,51.92
2022-10-25T18:59:36.974Z,51.78
2022-10-25T19:02:05.585Z,51.68
2022-10-25T19:04:34.444Z,51.76
2022-10-25T19:07:02.961Z,51.75
2022-10-25T19:09:31.478Z,51.63
2022-10-25T19:12:01.334Z,51.54
2022-10-25T19:14:30.249Z,51.34
2022-10-25T19:16:58.705Z,51.39
2022-10-25T19:19:27.236Z,51.26
2022-10-25T19:21:55.822Z,51.15
2022-10-25T19:24:26.966Z,51.10
2022-10-25T19:26:58.768Z,51.33
2022-10-25T19:29:28.797Z,51.12
2022-10-25T19:31:58.171Z,51.15
2022-10-25T19:34:30.844Z,51.07
2022-10-25T19:37:04.322Z,50.90
2022-10-25T19:39:33.001Z,51.07
2022-10-25T19:42:01.891Z,51.65
2022-10-25T19:44:31.528Z,51.79
2022-10-25T19:47:00.659Z,51.87
2022-10-25T19:49:29.145Z,51.97
2022-10-25T19:51:57.630Z,51.63
2022-10-25T19:54:26.095Z,51.56
2022-10-25T19:56:55.458Z,51.48
2022-10-25T19:59:23.930Z,51.30
2022-10-25T20:01:54.058Z,51.27
2022-10-25T20:04:22.628Z,51.47
2022-10-25T20:06:51.206Z,51.30
2022-10-25T20:09:19.915Z,51.31
2022-10-25T20:11:48.391Z,51.15
2022-10-25T20:14:16.867Z,51.30
2022-10-25T20:16:45.319Z,51.21
2022-10-25T20:19:15.407Z,51.29
2022-10-25T20:21:43.813Z,51.22
2022-10-25T20:24:12.365Z,51.23
2022-10-25T20:26:44.772Z,51.31
2022-10-25T20:29:20.123Z,51.48
2022-10-25T20:31:50.544Z,51.64
2022-10-25T20:34:20.978Z,51.61
2022-10-25T20:36:50.149Z,51.63
2022-10-25T20:39:18.675Z,51.60
2022-10-25T20:41:47.225Z,51.43
2022-10-25T20:44:15.792Z,51.70
2022-10-25T20:46:44.264Z,51.89
2022-10-25T20:49:12.883Z,51.84
2022-10-25T20:51:42.669Z,51.86
2022-10-25T20:54:11.980Z,52.10
2022-10-25T20:56:40.477Z,52.03
2022-10-25T20:59:09.358Z,51.99
2022-10-25T21:01:38.307Z,51.87
2022-10-25T21:04:06.563Z,52.06
2022-10-25T21:06:35.011Z,51.98
2022-10-25T21:09:05.032Z,51.76
2022-10-25T21:11:33.502Z,51.76
2022-10-25T21:14:01.875Z,51.80
2022-10-25T21:16:30.346Z,51.32
2022-10-25T21:18:58.764Z,51.29
2022-10-25T21:21:27.172Z,51.04
2022-10-25T21:23:57.125Z,50.94
2022-10-25T21:26:27.652Z,51.02
2022-10-25T21:28:56.112Z,51.13
2022-10-25T21:31:24.612Z,50.88
2022-10-25T21:33:55.106Z,50.88
2022-10-25T21:36:27.422Z,50.89
2022-10-25T21:38:55.878Z,50.79
2022-10-25T21:41:27.669Z,50.97
2022-10-25T21:43:57.478Z,50.84
2022-10-25T21:46:27.573Z,50.74
2022-10-25T21:48:56.354Z,50.99
2022-10-25T21:51:25.507Z,50.90
2022-10-25T21:53:55.231Z,51.25
2022-10-25T21:56:31.073Z,51.70
2022-10-25T21:59:01.973Z,51.75
2022-10-25T22:01:31.745Z,51.96
2022-10-25T22:04:00.490Z,51.98
2022-10-25T22:06:29.142Z,52.13
2022-10-25T22:08:58.443Z,52.42
2022-10-25T22:11:28.986Z,52.21
2022-10-25T22:13:59.036Z,52.73
2022-10-25T22:16:29.450Z,52.37
2022-10-25T22:19:00.180Z,52.34
2022-10-25T22:21:31.071Z,52.04
2022-10-25T22:23:59.659Z,52.06
2022-10-25T22:26:28.114Z,51.90
2022-10-25T22:28:57.910Z,51.80
2022-10-25T22:31:28.736Z,51.59
2022-10-25T22:33:58.934Z,51.39
2022-10-25T22:36:29.304Z,51.44
2022-10-25T22:38:58.093Z,51.17
2022-10-25T22:41:28.184Z,51.04
2022-10-25T22:43:56.790Z,51.16
2022-10-25T22:46:27.567Z,51.01
2022-10-25T22:48:59.154Z,50.83
2022-10-25T22:51:29.173Z,50.57
2022-10-25T22:53:57.804Z,50.50
2022-10-25T22:56:27.857Z,50.63
2022-10-25T22:58:58.143Z,50.41
2022-10-25T23:01:28.205Z,50.50
2022-10-25T23:03:59.306Z,50.58
2022-10-25T23:06:29.541Z,50.48
2022-10-25T23:09:00.162Z,50.40
2022-10-25T23:11:30.190Z,50.44
2022-10-25T23:13:59.323Z,50.32
2022-10-25T23:16:28.404Z,50.13
2022-10-25T23:18:58.666Z,50.13
2022-10-25T23:21:30.274Z,49.99
2022-10-25T23:24:00.686Z,49.87
2022-10-25T23:26:30.778Z,50.12
2022-10-25T23:28:59.354Z,49.83
2022-10-25T23:31:28.378Z,49.79
2022-10-25T23:34:00.169Z,50.33
2022-10-25T23:36:30.505Z,50.67
2022-10-25T23:38:59.775Z,50.32
2022-10-25T23:41:28.260Z,50.64
2022-10-25T23:43:56.707Z,50.27
2022-10-25T23:46:25.206Z,49.91
2022-10-25T23:48:53.580Z,50.59
2022-10-25T23:51:23.377Z,50.39
2022-10-25T23:53:52.204Z,50.27
2022-10-25T23:56:20.537Z,50.39
2022-10-25T23:58:53.736Z,50.39
